sensor_id;sensor_type;location;lat;lon;timestamp;temperature;humidity
5280;DHT22;2663;53.588;10.010;2022-11-02T00:02:00;12.80;95.10
5280;DHT22;2663;53.588;10.010;2022-11-02T00:04:27;14.40;95.60
5280;DHT22;2663;53.588;10.010;2022-11-02T00:06:54;14.50;95.60
5280;DHT22;2663;53.588;10.010;2022-11-02T00:09:20;14.50;95.50
5280;DHT22;2663;53.588;10.010;2022-11-02T00:11:47;14.40;95.60
5280;DHT22;2663;53.588;10.010;2022-11-02T00:14:14;14.40;95.60
5280;DHT22;2663;53.588;10.010;2022-11-02T00:16:41;14.30;95.60
5280;DHT22;2663;53.588;10.010;2022-11-02T00:19:08;14.40;95.60
5280;DHT22;2663;53.588;10.010;2022-11-02T00:21:35;14.40;95.70
5280;DHT22;2663;53.588;10.010;2022-11-02T00:24:04;14.40;95.70
5280;DHT22;2663;53.588;10.010;2022-11-02T00:26:32;14.30;95.70
5280;DHT22;2663;53.588;10.010;2022-11-02T00:29:00;14.30;95.80
5280;DHT22;2663;53.588;10.010;2022-11-02T00:31:27;14.30;95.80
5280;DHT22;2663;53.588;10.010;2022-11-02T00:33:53;14.70;96.00
5280;DHT22;2663;53.588;10.010;2022-11-02T00:36:20;14.30;95.90
5280;DHT22;2663;53.588;10.010;2022-11-02T00:38:47;14.20;96.00
5280;DHT22;2663;53.588;10.010;2022-11-02T00:41:14;14.20;96.10
5280;DHT22;2663;53.588;10.010;2022-11-02T00:43:40;14.20;96.10
5280;DHT22;2663;53.588;10.010;2022-11-02T00:46:07;14.20;96.00
5280;DHT22;2663;53.588;10.010;2022-11-02T00:48:33;14.20;96.20
5280;DHT22;2663;53.588;10.010;2022-11-02T00:51:01;14.20;96.10
5280;DHT22;2663;53.588;10.010;2022-11-02T00:53:28;14.20;96.20
5280;DHT22;2663;53.588;10.010;2022-11-02T00:55:54;14.10;96.30
5280;DHT22;2663;53.588;10.010;2022-11-02T00:58:21;14.10;96.30
5280;DHT22;2663;53.588;10.010;2022-11-02T01:00:48;14.00;96.40
5280;DHT22;2663;53.588;10.010;2022-11-02T01:03:14;14.00;96.40
5280;DHT22;2663;53.588;10.010;2022-11-02T01:05:41;14.00;96.40
5280;DHT22;2663;53.588;10.010;2022-11-02T01:08:08;14.00;96.50
5280;DHT22;2663;53.588;10.010;2022-11-02T01:10:35;14.00;96.60
5280;DHT22;2663;53.588;10.010;2022-11-02T01:13:01;14.00;96.70
5280;DHT22;2663;53.588;10.010;2022-11-02T01:15:28;14.00;96.70
5280;DHT22;2663;53.588;10.010;2022-11-02T01:17:55;14.00;96.70
5280;DHT22;2663;53.588;10.010;2022-11-02T01:20:21;14.00;96.70
5280;DHT22;2663;53.588;10.010;2022-11-02T01:22:48;14.00;96.70
5280;DHT22;2663;53.588;10.010;2022-11-02T01:25:15;14.00;96.80
5280;DHT22;2663;53.588;10.010;2022-11-02T01:27:41;14.00;96.90
5280;DHT22;2663;53.588;10.010;2022-11-02T01:30:08;14.00;96.70
5280;DHT22;2663;53.588;10.010;2022-11-02T01:32:35;14.00;96.70
5280;DHT22;2663;53.588;10.010;2022-11-02T01:35:02;14.00;96.80
5280;DHT22;2663;53.588;10.010;2022-11-02T01:37:29;13.90;96.80
5280;DHT22;2663;53.588;10.010;2022-11-02T01:39:55;13.90;96.90
5280;DHT22;2663;53.588;10.010;2022-11-02T01:42:24;14.00;96.90
5280;DHT22;2663;53.588;10.010;2022-11-02T01:44:51;13.90;96.90
5280;DHT22;2663;53.588;10.010;2022-11-02T01:49:47;13.90;97.10
5280;DHT22;2663;53.588;10.010;2022-11-02T01:52:21;13.90;97.20
5280;DHT22;2663;53.588;10.010;2022-11-02T01:54:54;13.90;97.00
5280;DHT22;2663;53.588;10.010;2022-11-02T01:57:21;14.00;97.00
5280;DHT22;2663;53.588;10.010;2022-11-02T02:02:28;13.90;97.10
5280;DHT22;2663;53.588;10.010;2022-11-02T02:05:04;13.90;97.10
5280;DHT22;2663;53.588;10.010;2022-11-02T02:07:34;14.00;97.20
5280;DHT22;2663;53.588;10.010;2022-11-02T02:10:03;14.00;97.10
5280;DHT22;2663;53.588;10.010;2022-11-02T02:12:30;14.10;97.10
5280;DHT22;2663;53.588;10.010;2022-11-02T02:14:58;14.10;96.80
5280;DHT22;2663;53.588;10.010;2022-11-02T02:20:26;14.00;97.00
5280;DHT22;2663;53.588;10.010;2022-11-02T02:28:46;14.00;97.20
5280;DHT22;2663;53.588;10.010;2022-11-02T02:34:08;13.90;97.40
5280;DHT22;2663;53.588;10.010;2022-11-02T02:37:03;13.80;97.60
5280;DHT22;2663;53.588;10.010;2022-11-02T02:40:04;13.90;97.40
5280;DHT22;2663;53.588;10.010;2022-11-02T02:42:53;13.90;97.40
5280;DHT22;2663;53.588;10.010;2022-11-02T02:45:25;13.90;97.60
5280;DHT22;2663;53.588;10.010;2022-11-02T02:48:06;13.90;97.50
5280;DHT22;2663;53.588;10.010;2022-11-02T02:50:45;13.90;97.70
5280;DHT22;2663;53.588;10.010;2022-11-02T02:53:14;14.00;97.60
5280;DHT22;2663;53.588;10.010;2022-11-02T02:55:46;13.90;97.90
5280;DHT22;2663;53.588;10.010;2022-11-02T02:58:20;13.90;97.90
5280;DHT22;2663;53.588;10.010;2022-11-02T03:00:48;13.90;98.00
5280;DHT22;2663;53.588;10.010;2022-11-02T03:03:19;13.90;98.00
5280;DHT22;2663;53.588;10.010;2022-11-02T03:06:02;13.90;98.00
5280;DHT22;2663;53.588;10.010;2022-11-02T03:08:30;13.90;98.20
5280;DHT22;2663;53.588;10.010;2022-11-02T03:11:07;13.90;98.10
5280;DHT22;2663;53.588;10.010;2022-11-02T03:14:05;13.90;98.00
5280;DHT22;2663;53.588;10.010;2022-11-02T03:17:13;13.90;98.30
5280;DHT22;2663;53.588;10.010;2022-11-02T03:19:52;13.90;98.30
5280;DHT22;2663;53.588;10.010;2022-11-02T03:22:49;14.00;98.30
5280;DHT22;2663;53.588;10.010;2022-11-02T03:25:31;14.10;98.60
5280;DHT22;2663;53.588;10.010;2022-11-02T03:28:17;14.10;98.40
5280;DHT22;2663;53.588;10.010;2022-11-02T03:30:49;14.10;98.20
5280;DHT22;2663;53.588;10.010;2022-11-02T03:33:34;14.10;98.40
5280;DHT22;2663;53.588;10.010;2022-11-02T03:36:14;14.10;98.30
5280;DHT22;2663;53.588;10.010;2022-11-02T03:38:55;14.10;98.10
5280;DHT22;2663;53.588;10.010;2022-11-02T03:41:23;14.00;98.10
5280;DHT22;2663;53.588;10.010;2022-11-02T03:43:57;14.00;98.50
5280;DHT22;2663;53.588;10.010;2022-11-02T03:46:25;14.00;98.40
5280;DHT22;2663;53.588;10.010;2022-11-02T03:48:54;13.90;98.60
5280;DHT22;2663;53.588;10.010;2022-11-02T03:51:22;13.80;99.00
5280;DHT22;2663;53.588;10.010;2022-11-02T03:53:57;13.80;98.90
5280;DHT22;2663;53.588;10.010;2022-11-02T03:56:38;13.70;98.90
5280;DHT22;2663;53.588;10.010;2022-11-02T03:59:06;13.70;99.20
5280;DHT22;2663;53.588;10.010;2022-11-02T04:01:38;13.80;99.00
5280;DHT22;2663;53.588;10.010;2022-11-02T04:04:06;13.90;99.00
5280;DHT22;2663;53.588;10.010;2022-11-02T04:06:33;13.80;99.10
5280;DHT22;2663;53.588;10.010;2022-11-02T04:09:00;13.80;99.10
5280;DHT22;2663;53.588;10.010;2022-11-02T04:11:27;13.90;99.00
5280;DHT22;2663;53.588;10.010;2022-11-02T04:14:13;13.80;99.40
5280;DHT22;2663;53.588;10.010;2022-11-02T04:16:59;13.80;99.60
5280;DHT22;2663;53.588;10.010;2022-11-02T04:19:44;13.90;99.40
5280;DHT22;2663;53.588;10.010;2022-11-02T04:22:16;13.90;99.60
5280;DHT22;2663;53.588;10.010;2022-11-02T04:25:03;15.50;99.90
5280;DHT22;2663;53.588;10.010;2022-11-02T04:27:45;14.00;99.20
5280;DHT22;2663;53.588;10.010;2022-11-02T04:30:14;14.10;99.40
5280;DHT22;2663;53.588;10.010;2022-11-02T04:32:46;14.10;99.10
5280;DHT22;2663;53.588;10.010;2022-11-02T04:35:32;13.90;99.30
5280;DHT22;2663;53.588;10.010;2022-11-02T04:37:59;13.90;99.50
5280;DHT22;2663;53.588;10.010;2022-11-02T04:40:45;14.00;99.30
5280;DHT22;2663;53.588;10.010;2022-11-02T04:43:12;13.90;99.30
5280;DHT22;2663;53.588;10.010;2022-11-02T04:45:38;13.90;99.20
5280;DHT22;2663;53.588;10.010;2022-11-02T04:48:07;13.80;99.50
5280;DHT22;2663;53.588;10.010;2022-11-02T04:50:34;13.90;99.30
5280;DHT22;2663;53.588;10.010;2022-11-02T04:53:04;16.40;99.90
5280;DHT22;2663;53.588;10.010;2022-11-02T04:55:30;13.90;99.40
5280;DHT22;2663;53.588;10.010;2022-11-02T04:57:57;13.90;99.30
5280;DHT22;2663;53.588;10.010;2022-11-02T05:00:24;13.80;99.30
5280;DHT22;2663;53.588;10.010;2022-11-02T05:02:50;13.90;99.50
5280;DHT22;2663;53.588;10.010;2022-11-02T05:05:17;13.80;99.50
5280;DHT22;2663;53.588;10.010;2022-11-02T05:07:44;13.80;99.80
5280;DHT22;2663;53.588;10.010;2022-11-02T05:10:11;13.80;99.60
5280;DHT22;2663;53.588;10.010;2022-11-02T05:12:37;13.70;99.90
5280;DHT22;2663;53.588;10.010;2022-11-02T05:15:04;13.60;99.80
5280;DHT22;2663;53.588;10.010;2022-11-02T05:17:31;13.50;99.90
5280;DHT22;2663;53.588;10.010;2022-11-02T05:19:58;13.40;99.90
5280;DHT22;2663;53.588;10.010;2022-11-02T05:22:25;13.40;99.90
5280;DHT22;2663;53.588;10.010;2022-11-02T05:24:51;13.30;99.90
5280;DHT22;2663;53.588;10.010;2022-11-02T05:27:18;13.40;99.90
5280;DHT22;2663;53.588;10.010;2022-11-02T05:29:44;13.40;99.90
5280;DHT22;2663;53.588;10.010;2022-11-02T05:32:11;13.40;99.90
5280;DHT22;2663;53.588;10.010;2022-11-02T05:34:38;13.30;99.90
5280;DHT22;2663;53.588;10.010;2022-11-02T05:37:04;13.30;99.90
5280;DHT22;2663;53.588;10.010;2022-11-02T05:39:31;13.40;99.90
5280;DHT22;2663;53.588;10.010;2022-11-02T05:41:58;13.60;99.90
5280;DHT22;2663;53.588;10.010;2022-11-02T05:44:24;13.70;99.90
5280;DHT22;2663;53.588;10.010;2022-11-02T05:46:51;13.70;99.90
5280;DHT22;2663;53.588;10.010;2022-11-02T05:49:17;13.70;99.90
5280;DHT22;2663;53.588;10.010;2022-11-02T05:51:44;13.70;99.90
5280;DHT22;2663;53.588;10.010;2022-11-02T05:54:11;13.70;99.90
5280;DHT22;2663;53.588;10.010;2022-11-02T05:56:38;13.70;99.90
5280;DHT22;2663;53.588;10.010;2022-11-02T05:59:04;13.70;99.90
5280;DHT22;2663;53.588;10.010;2022-11-02T06:01:31;13.70;99.90
5280;DHT22;2663;53.588;10.010;2022-11-02T06:03:58;13.70;99.90
5280;DHT22;2663;53.588;10.010;2022-11-02T06:06:25;13.60;99.90
5280;DHT22;2663;53.588;10.010;2022-11-02T06:08:51;13.70;99.90
5280;DHT22;2663;53.588;10.010;2022-11-02T06:11:18;13.60;99.90
5280;DHT22;2663;53.588;10.010;2022-11-02T06:13:48;13.70;99.90
5280;DHT22;2663;53.588;10.010;2022-11-02T06:16:16;13.60;99.90
5280;DHT22;2663;53.588;10.010;2022-11-02T06:18:48;13.60;99.90
5280;DHT22;2663;53.588;10.010;2022-11-02T06:21:15;13.60;99.90
5280;DHT22;2663;53.588;10.010;2022-11-02T06:23:41;13.60;99.90
5280;DHT22;2663;53.588;10.010;2022-11-02T06:26:09;13.70;99.90
5280;DHT22;2663;53.588;10.010;2022-11-02T06:28:36;13.70;99.90
5280;DHT22;2663;53.588;10.010;2022-11-02T06:31:03;13.80;99.90
5280;DHT22;2663;53.588;10.010;2022-11-02T06:33:30;13.80;99.90
5280;DHT22;2663;53.588;10.010;2022-11-02T06:35:56;13.80;99.90
5280;DHT22;2663;53.588;10.010;2022-11-02T06:38:24;13.60;99.90
5280;DHT22;2663;53.588;10.010;2022-11-02T06:40:59;13.50;99.90
5280;DHT22;2663;53.588;10.010;2022-11-02T06:43:27;13.60;99.90
5280;DHT22;2663;53.588;10.010;2022-11-02T06:45:55;13.40;99.90
5280;DHT22;2663;53.588;10.010;2022-11-02T06:48:22;13.40;99.90
5280;DHT22;2663;53.588;10.010;2022-11-02T06:50:52;13.40;99.90
5280;DHT22;2663;53.588;10.010;2022-11-02T06:53:18;13.60;99.90
5280;DHT22;2663;53.588;10.010;2022-11-02T06:55:57;13.80;99.90
5280;DHT22;2663;53.588;10.010;2022-11-02T06:58:24;13.90;99.90
5280;DHT22;2663;53.588;10.010;2022-11-02T07:01:01;14.10;99.90
5280;DHT22;2663;53.588;10.010;2022-11-02T07:03:29;13.90;99.90
5280;DHT22;2663;53.588;10.010;2022-11-02T07:05:56;13.90;99.90
5280;DHT22;2663;53.588;10.010;2022-11-02T07:08:23;13.80;99.90
5280;DHT22;2663;53.588;10.010;2022-11-02T07:10:50;13.80;99.90
5280;DHT22;2663;53.588;10.010;2022-11-02T07:13:17;13.70;99.90
5280;DHT22;2663;53.588;10.010;2022-11-02T07:15:44;13.70;99.90
5280;DHT22;2663;53.588;10.010;2022-11-02T07:18:12;13.70;99.90
5280;DHT22;2663;53.588;10.010;2022-11-02T07:20:39;13.70;99.90
5280;DHT22;2663;53.588;10.010;2022-11-02T07:23:05;13.70;99.90
5280;DHT22;2663;53.588;10.010;2022-11-02T07:25:33;13.80;99.90
5280;DHT22;2663;53.588;10.010;2022-11-02T07:28:01;12.70;99.90
5280;DHT22;2663;53.588;10.010;2022-11-02T07:30:29;13.60;99.90
5280;DHT22;2663;53.588;10.010;2022-11-02T07:32:56;13.60;99.90
5280;DHT22;2663;53.588;10.010;2022-11-02T07:35:23;13.60;99.90
5280;DHT22;2663;53.588;10.010;2022-11-02T07:37:54;13.60;99.90
5280;DHT22;2663;53.588;10.010;2022-11-02T07:40:21;13.60;99.90
5280;DHT22;2663;53.588;10.010;2022-11-02T07:42:48;13.60;99.90
5280;DHT22;2663;53.588;10.010;2022-11-02T07:45:15;13.60;99.90
5280;DHT22;2663;53.588;10.010;2022-11-02T07:47:45;13.60;99.90
5280;DHT22;2663;53.588;10.010;2022-11-02T07:50:14;13.70;99.90
5280;DHT22;2663;53.588;10.010;2022-11-02T07:52:51;13.70;99.90
5280;DHT22;2663;53.588;10.010;2022-11-02T07:55:20;13.70;99.90
5280;DHT22;2663;53.588;10.010;2022-11-02T07:57:54;13.80;99.90
5280;DHT22;2663;53.588;10.010;2022-11-02T08:00:22;13.90;99.90
5280;DHT22;2663;53.588;10.010;2022-11-02T08:02:53;13.90;99.90
5280;DHT22;2663;53.588;10.010;2022-11-02T08:05:21;13.90;99.90
5280;DHT22;2663;53.588;10.010;2022-11-02T08:07:54;13.90;99.90
5280;DHT22;2663;53.588;10.010;2022-11-02T08:10:21;13.90;99.90
5280;DHT22;2663;53.588;10.010;2022-11-02T08:12:47;13.90;99.90
5280;DHT22;2663;53.588;10.010;2022-11-02T08:15:14;13.90;99.90
5280;DHT22;2663;53.588;10.010;2022-11-02T08:17:41;13.90;99.90
5280;DHT22;2663;53.588;10.010;2022-11-02T08:20:08;14.00;99.90
5280;DHT22;2663;53.588;10.010;2022-11-02T08:22:39;14.00;99.90
5280;DHT22;2663;53.588;10.010;2022-11-02T08:25:06;14.00;99.90
5280;DHT22;2663;53.588;10.010;2022-11-02T08:27:33;14.00;99.90
5280;DHT22;2663;53.588;10.010;2022-11-02T08:30:00;14.00;99.90
5280;DHT22;2663;53.588;10.010;2022-11-02T08:32:27;14.00;99.60
5280;DHT22;2663;53.588;10.010;2022-11-02T08:34:53;14.00;99.60
5280;DHT22;2663;53.588;10.010;2022-11-02T08:37:20;14.70;99.80
5280;DHT22;2663;53.588;10.010;2022-11-02T08:39:47;14.00;99.40
5280;DHT22;2663;53.588;10.010;2022-11-02T08:42:13;14.00;99.80
5280;DHT22;2663;53.588;10.010;2022-11-02T08:44:40;14.00;99.50
5280;DHT22;2663;53.588;10.010;2022-11-02T08:47:08;14.00;99.90
5280;DHT22;2663;53.588;10.010;2022-11-02T08:49:35;14.10;99.40
5280;DHT22;2663;53.588;10.010;2022-11-02T08:52:02;14.10;99.30
5280;DHT22;2663;53.588;10.010;2022-11-02T08:54:28;14.10;99.40
5280;DHT22;2663;53.588;10.010;2022-11-02T08:56:55;14.10;99.50
5280;DHT22;2663;53.588;10.010;2022-11-02T09:01:48;14.00;99.40
5280;DHT22;2663;53.588;10.010;2022-11-02T09:04:15;14.00;99.60
5280;DHT22;2663;53.588;10.010;2022-11-02T09:06:42;13.80;99.20
5280;DHT22;2663;53.588;10.010;2022-11-02T09:09:09;14.10;99.60
5280;DHT22;2663;53.588;10.010;2022-11-02T09:11:35;14.10;99.40
5280;DHT22;2663;53.588;10.010;2022-11-02T09:14:02;14.10;99.50
5280;DHT22;2663;53.588;10.010;2022-11-02T09:16:29;14.00;99.40
5280;DHT22;2663;53.588;10.010;2022-11-02T09:18:56;14.10;99.60
5280;DHT22;2663;53.588;10.010;2022-11-02T09:21:22;14.00;99.50
5280;DHT22;2663;53.588;10.010;2022-11-02T09:23:49;14.00;99.50
5280;DHT22;2663;53.588;10.010;2022-11-02T09:26:15;14.00;99.40
5280;DHT22;2663;53.588;10.010;2022-11-02T09:28:42;14.00;99.60
5280;DHT22;2663;53.588;10.010;2022-11-02T09:31:09;14.00;99.60
5280;DHT22;2663;53.588;10.010;2022-11-02T09:33:37;14.10;99.50
5280;DHT22;2663;53.588;10.010;2022-11-02T09:36:05;14.10;99.30
5280;DHT22;2663;53.588;10.010;2022-11-02T09:38:32;14.10;99.40
5280;DHT22;2663;53.588;10.010;2022-11-02T09:41:16;14.20;99.20
5280;DHT22;2663;53.588;10.010;2022-11-02T09:43:59;14.00;99.20
5280;DHT22;2663;53.588;10.010;2022-11-02T09:46:32;14.10;99.30
5280;DHT22;2663;53.588;10.010;2022-11-02T09:49:05;14.10;99.20
5280;DHT22;2663;53.588;10.010;2022-11-02T09:51:39;14.10;99.10
5280;DHT22;2663;53.588;10.010;2022-11-02T09:54:33;14.10;99.10
5280;DHT22;2663;53.588;10.010;2022-11-02T09:57:04;14.10;99.10
5280;DHT22;2663;53.588;10.010;2022-11-02T09:59:32;14.10;99.10
5280;DHT22;2663;53.588;10.010;2022-11-02T10:04:48;14.00;98.90
5280;DHT22;2663;53.588;10.010;2022-11-02T10:10:33;14.00;98.80
5280;DHT22;2663;53.588;10.010;2022-11-02T10:15:55;13.90;99.00
5280;DHT22;2663;53.588;10.010;2022-11-02T10:18:26;13.90;99.90
5280;DHT22;2663;53.588;10.010;2022-11-02T10:20:57;13.70;99.90
5280;DHT22;2663;53.588;10.010;2022-11-02T10:23:32;13.30;99.90
5280;DHT22;2663;53.588;10.010;2022-11-02T10:26:00;13.00;99.90
5280;DHT22;2663;53.588;10.010;2022-11-02T10:28:38;12.90;99.90
5280;DHT22;2663;53.588;10.010;2022-11-02T10:31:26;12.60;99.90
5280;DHT22;2663;53.588;10.010;2022-11-02T10:33:56;12.30;99.90
5280;DHT22;2663;53.588;10.010;2022-11-02T10:36:46;12.00;99.90
5280;DHT22;2663;53.588;10.010;2022-11-02T10:39:17;12.00;99.90
5280;DHT22;2663;53.588;10.010;2022-11-02T10:42:08;12.00;99.90
5280;DHT22;2663;53.588;10.010;2022-11-02T10:47:18;12.30;99.90
5280;DHT22;2663;53.588;10.010;2022-11-02T10:52:41;12.70;99.90
5280;DHT22;2663;53.588;10.010;2022-11-02T10:55:34;12.90;99.90
5280;DHT22;2663;53.588;10.010;2022-11-02T10:58:03;13.00;99.90
5280;DHT22;2663;53.588;10.010;2022-11-02T11:00:35;13.00;99.90
5280;DHT22;2663;53.588;10.010;2022-11-02T11:03:12;13.00;99.90
5280;DHT22;2663;53.588;10.010;2022-11-02T11:06:01;13.10;99.90
5280;DHT22;2663;53.588;10.010;2022-11-02T11:08:40;13.10;99.90
5280;DHT22;2663;53.588;10.010;2022-11-02T11:11:14;13.00;99.90
5280;DHT22;2663;53.588;10.010;2022-11-02T11:14:07;13.10;99.90
5280;DHT22;2663;53.588;10.010;2022-11-02T11:16:59;13.10;99.90
5280;DHT22;2663;53.588;10.010;2022-11-02T11:19:51;13.20;99.90
5280;DHT22;2663;53.588;10.010;2022-11-02T11:24:53;13.20;99.90
5280;DHT22;2663;53.588;10.010;2022-11-02T11:27:53;13.30;99.90
5280;DHT22;2663;53.588;10.010;2022-11-02T11:33:16;13.30;99.90
5280;DHT22;2663;53.588;10.010;2022-11-02T11:35:48;13.20;99.90
5280;DHT22;2663;53.588;10.010;2022-11-02T11:38:20;13.20;99.90
5280;DHT22;2663;53.588;10.010;2022-11-02T11:40:51;13.20;99.90
5280;DHT22;2663;53.588;10.010;2022-11-02T11:43:21;13.10;99.90
5280;DHT22;2663;53.588;10.010;2022-11-02T11:45:59;13.20;99.90
5280;DHT22;2663;53.588;10.010;2022-11-02T11:48:45;13.20;99.90
5280;DHT22;2663;53.588;10.010;2022-11-02T11:54:13;13.20;99.90
5280;DHT22;2663;53.588;10.010;2022-11-02T11:56:42;13.20;99.90
5280;DHT22;2663;53.588;10.010;2022-11-02T11:59:43;13.30;99.90
5280;DHT22;2663;53.588;10.010;2022-11-02T12:02:30;13.30;99.90
5280;DHT22;2663;53.588;10.010;2022-11-02T12:05:18;13.20;99.90
5280;DHT22;2663;53.588;10.010;2022-11-02T12:16:56;12.80;99.90
5280;DHT22;2663;53.588;10.010;2022-11-02T12:19:51;12.70;99.90
5280;DHT22;2663;53.588;10.010;2022-11-02T12:30:23;12.70;99.90
5280;DHT22;2663;53.588;10.010;2022-11-02T12:33:12;12.80;99.90
5280;DHT22;2663;53.588;10.010;2022-11-02T12:38:51;13.00;99.90
5280;DHT22;2663;53.588;10.010;2022-11-02T12:42:10;13.10;99.90
5280;DHT22;2663;53.588;10.010;2022-11-02T12:49:55;13.40;99.90
5280;DHT22;2663;53.588;10.010;2022-11-02T12:52:58;13.50;99.90
5280;DHT22;2663;53.588;10.010;2022-11-02T12:55:42;13.60;99.90
5280;DHT22;2663;53.588;10.010;2022-11-02T12:58:32;13.70;99.90
5280;DHT22;2663;53.588;10.010;2022-11-02T13:04:19;13.90;99.90
5280;DHT22;2663;53.588;10.010;2022-11-02T13:07:00;14.00;99.90
5280;DHT22;2663;53.588;10.010;2022-11-02T13:09:43;14.00;99.90
5280;DHT22;2663;53.588;10.010;2022-11-02T13:12:20;13.80;99.90
5280;DHT22;2663;53.588;10.010;2022-11-02T13:14:50;13.80;99.70
5280;DHT22;2663;53.588;10.010;2022-11-02T13:19:55;13.70;99.90
5280;DHT22;2663;53.588;10.010;2022-11-02T13:22:27;13.70;99.90
5280;DHT22;2663;53.588;10.010;2022-11-02T13:25:11;13.70;99.90
5280;DHT22;2663;53.588;10.010;2022-11-02T13:27:55;13.60;99.90
5280;DHT22;2663;53.588;10.010;2022-11-02T13:30:30;13.90;99.90
5280;DHT22;2663;53.588;10.010;2022-11-02T13:33:40;13.50;99.90
5280;DHT22;2663;53.588;10.010;2022-11-02T13:36:05;13.40;99.90
5280;DHT22;2663;53.588;10.010;2022-11-02T13:44:39;13.30;99.90
5280;DHT22;2663;53.588;10.010;2022-11-02T13:49:56;13.20;99.90
5280;DHT22;2663;53.588;10.010;2022-11-02T13:54:59;13.30;99.90
5280;DHT22;2663;53.588;10.010;2022-11-02T13:57:33;13.30;99.90
5280;DHT22;2663;53.588;10.010;2022-11-02T14:00:04;13.30;99.90
5280;DHT22;2663;53.588;10.010;2022-11-02T14:02:35;13.30;99.90
5280;DHT22;2663;53.588;10.010;2022-11-02T14:05:03;13.40;99.90
5280;DHT22;2663;53.588;10.010;2022-11-02T14:07:34;13.50;99.90
5280;DHT22;2663;53.588;10.010;2022-11-02T14:10:16;13.60;99.90
5280;DHT22;2663;53.588;10.010;2022-11-02T14:12:48;13.60;99.90
5280;DHT22;2663;53.588;10.010;2022-11-02T14:25:57;13.60;99.90
5280;DHT22;2663;53.588;10.010;2022-11-02T14:28:32;13.60;99.90
5280;DHT22;2663;53.588;10.010;2022-11-02T14:31:29;13.60;99.90
5280;DHT22;2663;53.588;10.010;2022-11-02T14:34:02;13.70;99.90
5280;DHT22;2663;53.588;10.010;2022-11-02T14:40:03;13.70;99.90
5280;DHT22;2663;53.588;10.010;2022-11-02T14:47:41;13.70;99.00
5280;DHT22;2663;53.588;10.010;2022-11-02T14:50:17;13.70;99.20
5280;DHT22;2663;53.588;10.010;2022-11-02T14:53:02;13.70;98.20
5280;DHT22;2663;53.588;10.010;2022-11-02T14:55:31;13.60;97.70
5280;DHT22;2663;53.588;10.010;2022-11-02T14:58:17;13.70;97.60
5280;DHT22;2663;53.588;10.010;2022-11-02T15:06:20;13.60;97.40
5280;DHT22;2663;53.588;10.010;2022-11-02T15:08:58;13.60;97.40
5280;DHT22;2663;53.588;10.010;2022-11-02T15:11:45;13.60;97.60
5280;DHT22;2663;53.588;10.010;2022-11-02T15:17:06;13.60;97.80
5280;DHT22;2663;53.588;10.010;2022-11-02T15:20:18;13.50;97.90
5280;DHT22;2663;53.588;10.010;2022-11-02T15:22:41;13.50;97.90
5280;DHT22;2663;53.588;10.010;2022-11-02T15:25:35;13.40;98.10
5280;DHT22;2663;53.588;10.010;2022-11-02T15:28:14;13.40;98.00
5280;DHT22;2663;53.588;10.010;2022-11-02T15:30:47;13.40;98.30
5280;DHT22;2663;53.588;10.010;2022-11-02T15:33:32;13.30;98.40
5280;DHT22;2663;53.588;10.010;2022-11-02T15:36:00;13.20;98.50
5280;DHT22;2663;53.588;10.010;2022-11-02T15:38:28;13.20;98.50
5280;DHT22;2663;53.588;10.010;2022-11-02T15:52:08;13.10;98.20
5280;DHT22;2663;53.588;10.010;2022-11-02T16:00:19;12.90;98.10
5280;DHT22;2663;53.588;10.010;2022-11-02T16:02:50;12.90;98.40
5280;DHT22;2663;53.588;10.010;2022-11-02T16:05:25;12.90;98.60
5280;DHT22;2663;53.588;10.010;2022-11-02T16:07:54;12.80;98.70
5280;DHT22;2663;53.588;10.010;2022-11-02T16:10:37;13.00;98.80
5280;DHT22;2663;53.588;10.010;2022-11-02T16:13:11;12.80;98.80
5280;DHT22;2663;53.588;10.010;2022-11-02T16:15:39;12.70;98.90
5280;DHT22;2663;53.588;10.010;2022-11-02T16:18:27;12.70;99.10
5280;DHT22;2663;53.588;10.010;2022-11-02T16:20:56;12.70;99.10
5280;DHT22;2663;53.588;10.010;2022-11-02T16:23:28;12.70;99.10
5280;DHT22;2663;53.588;10.010;2022-11-02T16:25:56;12.70;99.20
5280;DHT22;2663;53.588;10.010;2022-11-02T16:28:25;16.10;99.90
5280;DHT22;2663;53.588;10.010;2022-11-02T16:33:54;14.20;99.90
5280;DHT22;2663;53.588;10.010;2022-11-02T16:36:29;14.30;99.90
5280;DHT22;2663;53.588;10.010;2022-11-02T16:39:01;14.40;99.90
5280;DHT22;2663;53.588;10.010;2022-11-02T16:41:31;14.40;99.70
5280;DHT22;2663;53.588;10.010;2022-11-02T16:44:02;14.40;99.30
5280;DHT22;2663;53.588;10.010;2022-11-02T16:46:46;14.30;99.40
5280;DHT22;2663;53.588;10.010;2022-11-02T16:49:20;14.30;99.90
5280;DHT22;2663;53.588;10.010;2022-11-02T16:51:52;14.40;98.70
5280;DHT22;2663;53.588;10.010;2022-11-02T16:56:54;14.50;97.90
5280;DHT22;2663;53.588;10.010;2022-11-02T16:59:21;14.50;98.00
5280;DHT22;2663;53.588;10.010;2022-11-02T17:01:49;14.50;98.20
5280;DHT22;2663;53.588;10.010;2022-11-02T17:04:20;14.50;98.10
5280;DHT22;2663;53.588;10.010;2022-11-02T17:06:48;14.20;96.70
5280;DHT22;2663;53.588;10.010;2022-11-02T17:09:28;13.70;97.40
5280;DHT22;2663;53.588;10.010;2022-11-02T17:11:59;13.20;97.90
5280;DHT22;2663;53.588;10.010;2022-11-02T17:14:30;13.00;98.60
5280;DHT22;2663;53.588;10.010;2022-11-02T17:17:28;12.90;98.80
5280;DHT22;2663;53.588;10.010;2022-11-02T17:22:57;12.90;99.10
5280;DHT22;2663;53.588;10.010;2022-11-02T17:25:34;12.80;99.10
5280;DHT22;2663;53.588;10.010;2022-11-02T17:28:04;12.90;99.40
5280;DHT22;2663;53.588;10.010;2022-11-02T17:30:49;12.90;99.40
5280;DHT22;2663;53.588;10.010;2022-11-02T17:33:30;12.80;99.30
5280;DHT22;2663;53.588;10.010;2022-11-02T17:36:07;12.80;99.50
5280;DHT22;2663;53.588;10.010;2022-11-02T17:38:34;12.90;99.70
5280;DHT22;2663;53.588;10.010;2022-11-02T17:41:01;12.80;99.10
5280;DHT22;2663;53.588;10.010;2022-11-02T17:43:28;12.70;99.30
5280;DHT22;2663;53.588;10.010;2022-11-02T17:45:58;12.70;99.70
5280;DHT22;2663;53.588;10.010;2022-11-02T17:48:28;12.70;99.40
5280;DHT22;2663;53.588;10.010;2022-11-02T17:50:55;12.70;99.50
5280;DHT22;2663;53.588;10.010;2022-11-02T17:53:23;12.60;99.30
5280;DHT22;2663;53.588;10.010;2022-11-02T17:55:50;12.60;99.60
5280;DHT22;2663;53.588;10.010;2022-11-02T17:58:16;12.60;99.40
5280;DHT22;2663;53.588;10.010;2022-11-02T18:00:43;12.70;99.50
5280;DHT22;2663;53.588;10.010;2022-11-02T18:03:16;12.50;99.50
5280;DHT22;2663;53.588;10.010;2022-11-02T18:05:45;12.50;99.70
5280;DHT22;2663;53.588;10.010;2022-11-02T18:08:16;12.50;99.50
5280;DHT22;2663;53.588;10.010;2022-11-02T18:10:45;12.40;99.70
5280;DHT22;2663;53.588;10.010;2022-11-02T18:13:14;12.40;99.60
5280;DHT22;2663;53.588;10.010;2022-11-02T18:15:41;12.40;99.60
5280;DHT22;2663;53.588;10.010;2022-11-02T18:18:08;14.80;99.90
5280;DHT22;2663;53.588;10.010;2022-11-02T18:20:35;12.40;99.70
5280;DHT22;2663;53.588;10.010;2022-11-02T18:23:13;12.40;99.50
5280;DHT22;2663;53.588;10.010;2022-11-02T18:25:40;12.40;99.10
5280;DHT22;2663;53.588;10.010;2022-11-02T18:28:06;12.40;99.20
5280;DHT22;2663;53.588;10.010;2022-11-02T18:30:33;12.40;99.10
5280;DHT22;2663;53.588;10.010;2022-11-02T18:33:00;12.40;99.30
5280;DHT22;2663;53.588;10.010;2022-11-02T18:35:28;12.40;99.50